createdAt,value
2017-10-20T00:01:22.805Z,64.00
2017-10-20T00:04:24.109Z,64.60
2017-10-20T00:07:27.077Z,64.00
2017-10-20T00:10:28.873Z,63.90
2017-10-20T00:13:31.020Z,63.60
2017-10-20T00:16:32.425Z,62.90
2017-10-20T00:19:33.817Z,62.50
2017-10-20T00:22:35.183Z,63.20
2017-10-20T00:25:36.629Z,61.20
2017-10-20T00:28:38.055Z,61.70
2017-10-20T00:31:39.431Z,62.10
2017-10-20T00:34:40.884Z,61.60
2017-10-20T00:37:42.328Z,61.50
2017-10-20T00:40:43.775Z,61.50
2017-10-20T00:43:45.267Z,62.00
2017-10-20T00:46:47.419Z,61.30
2017-10-20T00:49:48.864Z,60.40
2017-10-20T00:52:50.340Z,60.90
2017-10-20T00:55:52.606Z,62.10
2017-10-20T00:58:54.776Z,61.00
2017-10-20T01:01:56.286Z,60.80
2017-10-20T01:04:57.781Z,60.00
2017-10-20T01:07:59.266Z,60.10
2017-10-20T01:11:00.684Z,60.20
2017-10-20T01:14:02.117Z,59.70
2017-10-20T01:17:03.542Z,59.70
2017-10-20T01:20:05.026Z,59.70
2017-10-20T01:23:06.498Z,60.10
2017-10-20T01:26:08.663Z,59.80
2017-10-20T01:29:10.925Z,60.30
2017-10-20T01:32:12.363Z,60.30
2017-10-20T01:35:13.944Z,59.40
2017-10-20T01:38:16.120Z,60.50
2017-10-20T01:41:18.415Z,60.50
2017-10-20T01:44:20.364Z,60.00
2017-10-20T01:47:22.584Z,60.20
2017-10-20T01:50:24.142Z,59.00
2017-10-20T01:53:25.628Z,59.30
2017-10-20T01:56:27.168Z,59.40
2017-10-20T01:59:28.615Z,59.40
2017-10-20T02:02:30.078Z,59.90
2017-10-20T02:05:31.605Z,59.20
2017-10-20T02:08:33.060Z,58.50
2017-10-20T02:11:34.457Z,58.30
2017-10-20T02:14:36.691Z,59.00
2017-10-20T02:17:39.230Z,58.60
2017-10-20T02:20:41.800Z,57.90
2017-10-20T02:23:43.911Z,58.20
2017-10-20T02:26:45.898Z,59.50
2017-10-20T02:29:48.207Z,58.70
2017-10-20T02:32:49.728Z,58.50
2017-10-20T02:35:51.878Z,58.30
2017-10-20T02:38:53.328Z,57.70
2017-10-20T02:41:54.710Z,59.40
2017-10-20T02:44:56.128Z,59.60
2017-10-20T02:47:57.501Z,57.90
2017-10-20T02:50:58.960Z,58.40
2017-10-20T02:54:01.194Z,60.00
2017-10-20T02:57:02.584Z,59.30
2017-10-20T03:00:04.037Z,58.40
2017-10-20T03:03:05.552Z,58.70
2017-10-20T03:06:07.049Z,58.50
2017-10-20T03:09:08.445Z,58.50
2017-10-20T03:12:10.597Z,59.40
2017-10-20T03:15:12.697Z,61.50
2017-10-20T03:18:14.104Z,60.50
2017-10-20T03:21:15.534Z,59.10
2017-10-20T03:24:16.921Z,59.20
2017-10-20T03:27:19.064Z,58.90
2017-10-20T03:30:20.500Z,57.90
2017-10-20T03:33:21.944Z,59.30
2017-10-20T03:36:23.288Z,59.50
2017-10-20T03:39:24.704Z,58.20
2017-10-20T03:42:26.759Z,58.40
2017-10-20T03:45:28.945Z,58.10
2017-10-20T03:48:31.042Z,59.40
2017-10-20T03:51:32.457Z,58.90
2017-10-20T03:54:34.649Z,61.90
2017-10-20T03:57:36.002Z,61.40
2017-10-20T04:00:37.396Z,59.80
2017-10-20T04:03:38.757Z,58.20
2017-10-20T04:06:40.105Z,58.70
2017-10-20T04:09:41.531Z,58.20
2017-10-20T04:12:43.029Z,58.40
2017-10-20T04:15:45.204Z,60.30
2017-10-20T04:18:46.609Z,60.10
2017-10-20T04:21:48.765Z,58.90
2017-10-20T04:24:50.112Z,58.40
2017-10-20T04:27:51.482Z,57.50
2017-10-20T04:30:52.875Z,58.00
2017-10-20T04:33:55.057Z,58.80
2017-10-20T04:36:56.456Z,58.60
2017-10-20T04:39:57.819Z,58.00
2017-10-20T04:42:59.207Z,56.70
2017-10-20T04:46:00.549Z,57.60
2017-10-20T04:49:02.642Z,58.50
2017-10-20T04:52:04.079Z,58.30
2017-10-20T04:55:05.469Z,57.70
2017-10-20T04:58:06.813Z,57.80
2017-10-20T05:01:08.202Z,59.00
2017-10-20T05:04:10.380Z,62.50
2017-10-20T05:07:12.489Z,64.90
2017-10-20T05:10:13.922Z,64.30
2017-10-20T05:13:15.257Z,65.70
2017-10-20T05:16:17.399Z,70.50
2017-10-20T05:19:18.781Z,69.50
2017-10-20T05:22:20.877Z,74.30
2017-10-20T05:25:22.233Z,74.00
2017-10-20T05:28:23.628Z,76.70
2017-10-20T05:31:25.025Z,77.70
2017-10-20T05:34:26.407Z,79.40
2017-10-20T05:37:27.839Z,80.80
2017-10-20T05:40:29.188Z,80.90
2017-10-20T05:43:30.579Z,82.00
2017-10-20T05:46:31.923Z,83.30
2017-10-20T05:49:33.392Z,83.80
2017-10-20T05:52:34.807Z,84.30
2017-10-20T05:55:36.196Z,83.80
2017-10-20T05:58:37.560Z,85.80
2017-10-20T06:01:39.669Z,87.60
2017-10-20T06:04:41.061Z,86.30
2017-10-20T06:07:42.419Z,87.90
2017-10-20T06:10:44.532Z,88.70
2017-10-20T06:13:45.937Z,86.90
2017-10-20T06:16:47.280Z,87.20
2017-10-20T06:19:49.480Z,87.60
2017-10-20T06:22:50.881Z,87.30
2017-10-20T06:25:52.988Z,88.00
2017-10-20T06:28:55.096Z,87.00
2017-10-20T06:31:56.492Z,86.70
2017-10-20T06:34:57.886Z,87.60
2017-10-20T06:37:59.350Z,87.30
2017-10-20T06:41:00.729Z,86.70
2017-10-20T06:44:02.176Z,87.80
2017-10-20T06:47:03.548Z,87.70
2017-10-20T06:50:04.981Z,88.50
2017-10-20T06:53:07.208Z,88.70
2017-10-20T06:56:08.582Z,87.60
2017-10-20T06:59:09.996Z,88.20
2017-10-20T07:02:12.127Z,87.90
2017-10-20T07:05:13.524Z,87.80
2017-10-20T07:08:14.970Z,86.90
2017-10-20T07:11:17.059Z,87.50
2017-10-20T07:14:18.488Z,87.40
2017-10-20T07:17:20.614Z,88.10
2017-10-20T07:20:23.966Z,87.10
2017-10-20T07:23:25.365Z,86.10
2017-10-20T07:26:26.782Z,86.70
2017-10-20T07:29:28.288Z,85.80
2017-10-20T07:32:29.878Z,86.40
2017-10-20T07:35:31.249Z,86.90
2017-10-20T07:38:32.619Z,86.40
2017-10-20T07:41:33.985Z,86.90
2017-10-20T07:44:35.332Z,86.40
2017-10-20T07:47:36.736Z,84.70
2017-10-20T07:50:38.172Z,86.00
2017-10-20T07:53:40.359Z,87.20
2017-10-20T07:56:41.729Z,87.20
2017-10-20T07:59:43.085Z,86.60
2017-10-20T08:02:44.434Z,86.00
2017-10-20T08:05:45.875Z,85.30
2017-10-20T08:08:47.253Z,85.10
2017-10-20T08:11:48.808Z,83.50
2017-10-20T08:14:50.866Z,85.70
2017-10-20T08:17:52.229Z,84.10
2017-10-20T08:20:54.440Z,83.60
2017-10-20T08:23:56.531Z,84.90
2017-10-20T08:26:57.901Z,85.30
2017-10-20T08:29:59.184Z,83.40
2017-10-20T08:33:00.522Z,82.90
2017-10-20T08:36:01.846Z,84.10
2017-10-20T08:39:03.205Z,83.80
2017-10-20T08:42:04.510Z,83.90
2017-10-20T08:45:05.856Z,86.40
2017-10-20T08:48:07.893Z,83.90
2017-10-20T08:51:09.231Z,83.80
2017-10-20T08:54:10.553Z,83.80
2017-10-20T08:57:11.928Z,84.30
2017-10-20T09:00:13.198Z,83.60
2017-10-20T09:03:14.556Z,82.00
2017-10-20T09:06:16.637Z,82.80
2017-10-20T09:09:18.595Z,83.10
2017-10-20T09:12:20.672Z,82.90
2017-10-20T09:15:22.754Z,83.20
2017-10-20T09:18:24.072Z,83.10
2017-10-20T09:21:26.158Z,81.00
2017-10-20T09:24:27.485Z,81.00
2017-10-20T09:27:28.809Z,81.40
2017-10-20T09:30:30.129Z,81.70
2017-10-20T09:33:31.468Z,82.00
2017-10-20T09:36:32.745Z,84.70
2017-10-20T09:39:34.053Z,86.60
2017-10-20T09:42:35.369Z,88.40
2017-10-20T09:45:36.674Z,88.60
2017-10-20T09:48:37.971Z,89.40
2017-10-20T09:51:39.296Z,89.80
2017-10-20T09:54:40.583Z,87.30
2017-10-20T09:57:42.638Z,88.00
2017-10-20T10:00:43.928Z,87.80
2017-10-20T10:03:45.243Z,86.60
2017-10-20T10:06:47.267Z,86.10
2017-10-20T10:09:48.563Z,86.00
2017-10-20T10:12:50.640Z,86.70
2017-10-20T10:15:52.681Z,87.30
2017-10-20T10:18:54.004Z,87.30
2017-10-20T10:25:03.465Z,86.50
2017-10-20T10:28:04.772Z,88.20
2017-10-20T10:31:06.117Z,87.50
2017-10-20T10:34:08.192Z,87.70
2017-10-20T10:37:09.473Z,87.60
2017-10-20T10:40:10.765Z,86.70
2017-10-20T10:43:12.038Z,87.40
2017-10-20T10:46:13.425Z,83.60
2017-10-20T10:49:14.748Z,84.50
2017-10-20T10:52:16.085Z,84.40
2017-10-20T10:55:17.391Z,83.80
2017-10-20T10:58:18.754Z,80.40
2017-10-20T11:01:20.088Z,81.90
2017-10-20T11:04:21.356Z,80.80
2017-10-20T11:07:41.482Z,80.20
2017-10-20T11:14:26.489Z,78.00
2017-10-20T11:17:28.540Z,77.30
2017-10-20T11:20:29.907Z,77.10
2017-10-20T11:23:31.228Z,77.10
2017-10-20T11:26:33.250Z,74.60
2017-10-20T11:29:34.685Z,74.50
2017-10-20T11:32:36.047Z,73.20
2017-10-20T11:35:37.374Z,71.00
2017-10-20T11:38:38.732Z,70.30
2017-10-20T11:41:40.123Z,70.20
2017-10-20T11:44:41.506Z,70.10
2017-10-20T11:47:42.837Z,67.40
2017-10-20T11:50:44.942Z,70.10
2017-10-20T11:53:46.290Z,70.00
2017-10-20T11:56:47.665Z,70.30
2017-10-20T11:59:49.035Z,69.80
2017-10-20T12:02:50.382Z,68.50
2017-10-20T12:05:51.747Z,67.10
2017-10-20T12:08:53.072Z,67.10
2017-10-20T12:11:54.529Z,66.90
2017-10-20T12:14:55.968Z,65.30
2017-10-20T12:17:57.359Z,66.70
2017-10-20T12:20:59.458Z,66.00
2017-10-20T12:24:00.838Z,65.70
2017-10-20T12:27:02.221Z,63.80
2017-10-20T12:30:04.331Z,63.40
2017-10-20T12:33:05.720Z,63.00
2017-10-20T12:36:07.053Z,63.60
2017-10-20T12:39:08.474Z,63.10
2017-10-20T12:42:09.804Z,63.50
2017-10-20T12:45:11.901Z,63.80
2017-10-20T12:48:13.228Z,63.70
2017-10-20T12:51:15.224Z,64.60
2017-10-20T12:54:16.605Z,64.20
2017-10-20T12:57:17.899Z,65.60
2017-10-20T13:00:19.224Z,63.70
2017-10-20T13:03:20.519Z,62.00
2017-10-20T13:06:21.895Z,61.70
2017-10-20T13:09:23.258Z,62.50
2017-10-20T13:12:24.599Z,61.00
2017-10-20T13:15:26.057Z,62.80
2017-10-20T13:18:27.305Z,62.70
2017-10-20T13:21:28.590Z,63.20
2017-10-20T13:24:31.964Z,64.00
2017-10-20T13:27:33.273Z,63.70
2017-10-20T13:30:34.551Z,63.30
2017-10-20T13:33:35.876Z,64.00
2017-10-20T13:36:37.177Z,63.20
2017-10-20T13:39:39.236Z,65.00
2017-10-20T13:42:40.541Z,64.90
2017-10-20T13:45:41.890Z,64.00
2017-10-20T13:48:43.167Z,64.70
2017-10-20T13:51:44.453Z,64.10
2017-10-20T13:54:46.573Z,65.10
2017-10-20T13:57:47.915Z,65.10
2017-10-20T14:00:49.231Z,63.10
2017-10-20T14:03:50.525Z,64.20
2017-10-20T14:06:51.833Z,66.00
2017-10-20T14:09:53.150Z,63.80
2017-10-20T14:12:54.436Z,64.90
2017-10-20T14:15:55.732Z,63.70
2017-10-20T14:18:57.033Z,63.90
2017-10-20T14:21:58.335Z,65.10
2017-10-20T14:24:59.598Z,63.90
2017-10-20T14:28:01.864Z,63.00
2017-10-20T14:31:04.409Z,64.30
2017-10-20T14:34:05.813Z,62.70
2017-10-20T14:37:07.203Z,62.50
2017-10-20T14:40:08.561Z,65.20
2017-10-20T14:43:10.750Z,64.50
2017-10-20T14:46:12.109Z,64.20
2017-10-20T14:49:14.526Z,64.50
2017-10-20T14:52:15.881Z,63.90
2017-10-20T14:55:17.394Z,62.60
2017-10-20T14:58:19.616Z,62.70
2017-10-20T15:01:21.058Z,62.40
2017-10-20T15:04:22.425Z,63.30
2017-10-20T15:07:23.776Z,62.90
2017-10-20T15:10:25.338Z,63.90
2017-10-20T15:13:26.679Z,63.70
2017-10-20T15:16:27.983Z,64.10
2017-10-20T15:19:30.042Z,65.30
2017-10-20T15:22:32.705Z,65.60
2017-10-20T15:25:34.219Z,65.70
2017-10-20T15:28:35.754Z,64.40
2017-10-20T15:31:37.291Z,65.10
2017-10-20T15:34:39.631Z,67.40
2017-10-20T15:37:41.174Z,66.80
2017-10-20T15:40:42.712Z,66.90
2017-10-20T15:43:44.372Z,65.90
2017-10-20T15:46:45.949Z,68.00
2017-10-20T15:49:47.467Z,66.00
2017-10-20T15:52:49.019Z,65.70
2017-10-20T15:55:51.236Z,66.90
2017-10-20T15:58:52.960Z,67.20
2017-10-20T16:01:54.468Z,66.60
2017-10-20T16:04:56.745Z,68.10
2017-10-20T16:07:58.545Z,66.10
2017-10-20T16:11:00.319Z,67.00
2017-10-20T16:14:01.844Z,67.10
2017-10-20T16:17:03.519Z,67.30
2017-10-20T16:20:05.079Z,67.90
2017-10-20T16:23:06.564Z,67.20
2017-10-20T16:26:08.452Z,66.40
2017-10-20T16:29:11.249Z,67.80
2017-10-20T16:32:13.117Z,66.90
2017-10-20T16:35:16.060Z,67.20
2017-10-20T16:38:17.647Z,67.70
2017-10-20T16:41:21.155Z,67.80
2017-10-20T16:44:23.905Z,67.80
2017-10-20T16:47:25.733Z,67.10
2017-10-20T16:50:28.013Z,67.10
2017-10-20T16:53:29.625Z,66.10
2017-10-20T16:56:32.525Z,65.00
2017-10-20T16:59:34.092Z,66.30
2017-10-20T17:02:35.676Z,65.80
2017-10-20T17:05:38.071Z,66.30
2017-10-20T17:08:41.556Z,65.40
2017-10-20T17:11:43.217Z,66.70
2017-10-20T17:14:44.928Z,65.20
2017-10-20T17:17:50.728Z,66.90
2017-10-20T17:20:52.689Z,66.60
2017-10-20T17:23:54.337Z,65.60
2017-10-20T17:26:56.468Z,64.30
2017-10-20T17:29:58.728Z,66.20
2017-10-20T17:33:00.691Z,65.70
2017-10-20T17:36:03.823Z,65.00
2017-10-20T17:39:06.457Z,65.60
2017-10-20T17:42:07.976Z,65.30
2017-10-20T17:45:09.619Z,65.30
2017-10-20T17:48:11.763Z,66.90
2017-10-20T17:51:13.316Z,65.00
2017-10-20T17:54:15.247Z,66.60
2017-10-20T17:57:18.031Z,64.90
2017-10-20T18:00:20.122Z,65.40
2017-10-20T18:03:21.719Z,65.30
2017-10-20T18:06:23.645Z,64.30
2017-10-20T18:09:25.572Z,65.10
2017-10-20T18:12:27.117Z,65.60
2017-10-20T18:15:28.718Z,64.90
2017-10-20T18:18:30.250Z,72.70
2017-10-20T18:21:31.870Z,66.30
2017-10-20T18:24:33.473Z,65.00
2017-10-20T18:27:35.816Z,66.10
2017-10-20T18:30:37.350Z,66.60
2017-10-20T18:33:38.888Z,65.00
2017-10-20T18:36:41.347Z,65.60
2017-10-20T18:39:43.676Z,64.80
2017-10-20T18:42:45.196Z,63.40
2017-10-20T18:45:47.724Z,65.10
2017-10-20T18:48:49.486Z,64.60
2017-10-20T18:51:52.138Z,65.00
2017-10-20T18:54:53.699Z,63.60
2017-10-20T18:57:55.344Z,63.60
2017-10-20T19:00:56.868Z,64.30
2017-10-20T19:07:07.838Z,64.00
2017-10-20T19:10:09.482Z,64.60
2017-10-20T19:13:11.065Z,64.10
2017-10-20T19:16:13.305Z,65.50
2017-10-20T19:19:14.878Z,64.20
2017-10-20T19:22:16.380Z,64.50
2017-10-20T19:25:18.617Z,64.30
2017-10-20T19:28:20.307Z,65.00
2017-10-20T19:31:21.825Z,64.20
2017-10-20T19:34:24.048Z,64.70
2017-10-20T19:37:25.693Z,62.90
2017-10-20T19:40:27.413Z,63.40
2017-10-20T19:43:30.195Z,63.70
2017-10-20T19:46:32.591Z,64.20
2017-10-20T19:49:35.170Z,64.40
2017-10-20T19:52:37.502Z,64.10
2017-10-20T19:55:39.213Z,63.60
2017-10-20T19:58:41.790Z,63.70
2017-10-20T20:01:43.687Z,63.00
2017-10-20T20:04:45.204Z,63.40
2017-10-20T20:07:47.764Z,63.00
2017-10-20T20:10:49.346Z,62.70
2017-10-20T20:13:51.099Z,63.20
2017-10-20T20:16:52.672Z,61.90
2017-10-20T20:19:54.296Z,62.30
2017-10-20T20:22:56.623Z,63.70
2017-10-20T20:25:58.128Z,62.00
2017-10-20T20:29:00.444Z,64.00
2017-10-20T20:32:02.790Z,63.30
2017-10-20T20:35:05.096Z,63.10
2017-10-20T20:38:06.659Z,62.40
2017-10-20T20:41:08.277Z,61.50
2017-10-20T20:44:09.814Z,63.10
2017-10-20T20:47:12.128Z,63.30
2017-10-20T20:50:13.609Z,62.80
2017-10-20T20:53:15.245Z,62.80
2017-10-20T20:56:16.923Z,62.50
2017-10-20T20:59:18.664Z,62.10
2017-10-20T21:02:20.417Z,62.60
2017-10-20T21:05:22.000Z,63.30
2017-10-20T21:08:23.481Z,62.20
2017-10-20T21:11:25.863Z,63.90
2017-10-20T21:14:27.455Z,63.50
2017-10-20T21:17:28.953Z,63.10
2017-10-20T21:20:30.467Z,62.60
2017-10-20T21:23:31.994Z,62.20
2017-10-20T21:26:33.581Z,62.80
2017-10-20T21:29:35.111Z,62.70
2017-10-20T21:32:36.615Z,62.40
2017-10-20T21:35:38.303Z,62.50
2017-10-20T21:38:39.916Z,63.10
2017-10-20T21:41:41.437Z,63.00
2017-10-20T21:44:43.022Z,62.50
2017-10-20T21:47:45.304Z,64.60
2017-10-20T21:50:46.822Z,64.00
2017-10-20T21:53:48.368Z,64.10
2017-10-20T21:56:49.948Z,64.60
2017-10-20T21:59:51.474Z,64.60
2017-10-20T22:02:53.519Z,65.00
2017-10-20T22:05:55.004Z,65.50
2017-10-20T22:08:56.544Z,65.50
2017-10-20T22:11:58.100Z,65.60
2017-10-20T22:14:59.635Z,65.20
2017-10-20T22:18:01.912Z,65.10
2017-10-20T22:21:04.159Z,65.60
2017-10-20T22:24:05.767Z,63.60
2017-10-20T22:27:07.240Z,64.80
2017-10-20T22:30:08.757Z,66.20
2017-10-20T22:33:10.296Z,66.40
2017-10-20T22:36:12.613Z,66.00
2017-10-20T22:39:14.165Z,65.30
2017-10-20T22:42:15.660Z,65.70
2017-10-20T22:45:17.171Z,65.30
2017-10-20T22:48:18.647Z,65.00
2017-10-20T22:54:28.341Z,66.00
2017-10-20T22:57:29.864Z,66.10
2017-10-20T23:00:32.136Z,67.00
2017-10-20T23:03:33.654Z,66.40
2017-10-20T23:06:35.235Z,66.10
2017-10-20T23:09:36.750Z,66.40
2017-10-20T23:12:39.000Z,68.10
2017-10-20T23:15:41.247Z,68.70
2017-10-20T23:18:42.749Z,66.00
2017-10-20T23:21:45.048Z,67.60
2017-10-20T23:24:46.572Z,66.70
2017-10-20T23:27:48.929Z,67.70
2017-10-20T23:30:50.404Z,66.20
2017-10-20T23:33:52.648Z,67.90
2017-10-20T23:36:54.149Z,67.40
2017-10-20T23:39:55.691Z,65.90
2017-10-20T23:46:05.534Z,67.10
2017-10-20T23:49:07.775Z,68.00
2017-10-20T23:52:10.012Z,68.50
2017-10-20T23:55:11.587Z,67.90
2017-10-20T23:58:13.048Z,68.00
